Time;durP1;ratioP1;P1;durP2;ratioP2;P2;SDS_P1;SDS_P2;PMS_P1;PMS_P2;Temp;Humidity;BMP_temperature;BMP_pressure;BME280_temperature;BME280_humidity;BME280_pressure;Samples;Min_cycle;Max_cycle;Signal;HPM_P1;HPM_P2
2023/05/18 00:00:40;;;;;;;8.27;4.23;;;11.80;99.90;;;;;;7383121;19;20143;-73
2023/05/18 00:03:06;;;;;;;6.07;3.83;;;11.70;99.90;;;;;;7383578;19;20626;-72
2023/05/18 00:05:33;;;;;;;7.40;4.57;;;11.70;99.90;;;;;;7385665;19;20464;-74
2023/05/18 00:08:00;;;;;;;8.30;4.13;;;11.80;99.90;;;;;;7386132;19;20488;-73
2023/05/18 00:10:25;;;;;;;9.27;4.57;;;11.80;99.90;;;;;;7386404;19;20155;-74
2023/05/18 00:12:51;;;;;;;6.93;4.47;;;11.80;99.90;;;;;;7384633;19;20138;-74
2023/05/18 00:15:17;;;;;;;6.17;3.67;;;11.80;99.90;;;;;;7384883;19;20245;-73
2023/05/18 00:17:44;;;;;;;6.30;3.40;;;11.70;99.90;;;;;;7384543;19;20151;-72
2023/05/18 00:20:10;;;;;;;4.43;3.23;;;11.70;99.90;;;;;;7381979;19;20185;-73
2023/05/18 00:22:41;;;;;;;5.90;3.17;;;11.60;99.90;;;;;;7380422;19;20150;-73
2023/05/18 00:25:07;;;;;;;6.43;3.40;;;11.60;99.90;;;;;;7383605;19;20153;-73
2023/05/18 00:27:33;;;;;;;5.97;3.57;;;11.60;99.90;;;;;;7384629;19;20150;-74
2023/05/18 00:29:59;;;;;;;7.47;3.90;;;11.60;99.90;;;;;;7383672;19;20554;-73
2023/05/18 00:32:24;;;;;;;7.07;3.97;;;11.60;99.90;;;;;;7384847;19;20221;-74
2023/05/18 00:34:50;;;;;;;8.73;3.60;;;11.60;99.90;;;;;;7384367;19;20134;-74
2023/05/18 00:37:16;;;;;;;5.47;3.63;;;11.60;99.90;;;;;;7384788;19;20155;-72
2023/05/18 00:39:41;;;;;;;7.57;4.20;;;11.60;99.90;;;;;;7383564;19;20146;-73
2023/05/18 00:42:07;;;;;;;7.63;3.67;;;11.50;99.90;;;;;;7383297;19;20290;-73
2023/05/18 00:44:33;;;;;;;7.93;3.77;;;11.50;99.90;;;;;;7381625;19;20165;-74
2023/05/18 00:46:59;;;;;;;8.77;4.60;;;11.50;99.90;;;;;;7384296;19;20131;-73
2023/05/18 00:49:25;;;;;;;7.67;4.23;;;11.30;99.90;;;;;;7383273;19;20135;-73
2023/05/18 00:51:53;;;;;;;6.57;3.83;;;11.00;99.90;;;;;;7383490;19;20925;-73
2023/05/18 00:54:19;;;;;;;6.20;3.90;;;11.00;99.90;;;;;;7384284;19;20138;-78
2023/05/18 00:56:47;;;;;;;6.23;4.13;;;11.20;99.90;;;;;;7382634;19;20879;-78
2023/05/18 00:59:14;;;;;;;6.20;4.27;;;11.60;99.90;;;;;;7382878;19;20156;-78
2023/05/18 01:01:42;;;;;;;7.80;4.27;;;11.40;99.90;;;;;;7382832;19;20138;-77
2023/05/18 01:04:09;;;;;;;6.87;4.40;;;11.40;99.90;;;;;;7383376;19;20146;-77
2023/05/18 01:06:34;;;;;;;6.63;4.27;;;11.40;99.90;;;;;;7384555;19;20142;-78
2023/05/18 01:09:03;;;;;;;6.63;4.17;;;11.40;99.90;;;;;;7385131;19;20143;-77
2023/05/18 01:11:50;;;;;;;8.47;4.50;;;11.40;99.90;;;;;;7383910;19;20639;-77
2023/05/18 01:14:30;;;;;;;8.53;4.70;;;11.40;99.90;;;;;;7382849;19;20178;-78
2023/05/18 01:17:12;;;;;;;10.23;5.10;;;11.20;99.90;;;;;;7384924;19;20444;-77
2023/05/18 01:20:08;;;;;;;7.23;4.10;;;11.00;99.90;;;;;;7383381;19;20153;-77
2023/05/18 01:22:44;;;;;;;11.63;4.50;;;11.00;99.90;;;;;;7389102;19;20157;-77
2023/05/18 01:25:30;;;;;;;8.80;4.37;;;11.20;99.90;;;;;;7390164;19;20150;-78
2023/05/18 01:28:04;;;;;;;9.57;4.03;;;11.00;99.90;;;;;;7389957;19;20141;-77
2023/05/18 01:30:34;;;;;;;7.17;4.30;;;11.10;99.90;;;;;;7392063;19;20134;-77
2023/05/18 01:33:05;;;;;;;7.57;4.23;;;11.10;99.90;;;;;;7390905;19;20137;-78
2023/05/18 01:35:30;;;;;;;8.83;3.90;;;10.40;99.90;;;;;;7389979;19;20221;-79
2023/05/18 01:37:56;;;;;;;7.50;3.80;;;10.30;99.90;;;;;;7389186;19;20460;-77
2023/05/18 01:40:24;;;;;;;7.00;4.40;;;10.50;99.90;;;;;;7390679;19;20218;-77
2023/05/18 01:42:58;;;;;;;8.90;4.30;;;10.50;99.90;;;;;;7389560;19;20141;-78
2023/05/18 01:45:27;;;;;;;7.70;5.17;;;10.60;99.90;;;;;;7391351;19;20135;-78
2023/05/18 01:47:57;;;;;;;7.67;4.50;;;10.80;99.90;;;;;;7389204;19;20139;-78
2023/05/18 01:50:36;;;;;;;8.97;4.20;;;10.60;99.90;;;;;;7387468;19;20258;-76
2023/05/18 01:53:07;;;;;;;7.47;4.30;;;10.60;99.90;;;;;;7390272;19;20595;-78
2023/05/18 01:55:35;;;;;;;7.03;4.13;;;10.80;99.90;;;;;;7389722;19;20157;-78
2023/05/18 01:58:03;;;;;;;8.57;4.40;;;10.80;99.90;;;;;;7391041;19;20131;-77
2023/05/18 02:00:29;;;;;;;7.57;4.90;;;10.50;99.90;;;;;;7387799;19;20654;-77
2023/05/18 02:02:55;;;;;;;6.27;4.57;;;10.30;99.90;;;;;;7385453;19;20449;-79
2023/05/18 02:05:21;;;;;;;5.77;4.27;;;10.30;99.90;;;;;;7387865;19;20157;-78
2023/05/18 02:07:47;;;;;;;8.43;4.63;;;10.70;99.90;;;;;;7387590;19;20141;-77
2023/05/18 02:10:13;;;;;;;6.53;4.27;;;10.60;99.90;;;;;;7387782;19;20161;-78
2023/05/18 02:12:38;;;;;;;6.53;4.03;;;10.60;99.90;;;;;;7388636;19;20169;-79
2023/05/18 02:15:05;;;;;;;6.80;4.80;;;10.40;99.90;;;;;;7387380;19;20126;-79
2023/05/18 02:17:36;;;;;;;9.93;4.80;;;10.60;99.90;;;;;;7387906;19;20134;-79
2023/05/18 02:20:06;;;;;;;6.80;4.50;;;10.50;99.90;;;;;;7386905;19;20178;-79
2023/05/18 02:22:32;;;;;;;7.80;4.80;;;10.40;99.90;;;;;;7388248;19;20151;-78
2023/05/18 02:24:58;;;;;;;8.93;4.10;;;10.30;99.90;;;;;;7389634;19;20126;-78
2023/05/18 02:27:23;;;;;;;5.87;4.17;;;10.40;99.90;;;;;;7389122;19;20149;-78
2023/05/18 02:29:50;;;;;;;6.57;4.60;;;10.40;99.90;;;;;;7387082;19;20428;-79
2023/05/18 02:32:16;;;;;;;9.27;4.60;;;10.50;99.90;;;;;;7387229;19;20143;-77
2023/05/18 02:34:42;;;;;;;8.17;4.73;;;10.50;99.90;;;;;;7383682;19;20262;-78
2023/05/18 02:37:08;;;;;;;8.60;4.30;;;10.50;99.90;;;;;;7383133;19;20602;-78
2023/05/18 02:39:33;;;;;;;7.83;4.20;;;10.00;99.90;;;;;;7386780;19;20135;-79
2023/05/18 02:41:59;;;;;;;5.77;4.10;;;9.90;99.90;;;;;;7390044;19;20202;-78
2023/05/18 02:44:25;;;;;;;5.40;3.90;;;9.90;99.90;;;;;;7385295;19;20157;-79
2023/05/18 02:46:51;;;;;;;4.97;4.43;;;10.00;99.90;;;;;;7390573;19;20590;-78
2023/05/18 02:49:16;;;;;;;6.27;4.20;;;10.20;99.90;;;;;;7387480;19;20134;-78
2023/05/18 02:51:42;;;;;;;6.50;4.03;;;10.40;99.90;;;;;;7387712;19;20134;-78
2023/05/18 02:54:08;;;;;;;7.30;4.80;;;10.40;99.90;;;;;;7385026;19;20920;-78
2023/05/18 02:56:33;;;;;;;9.03;4.23;;;10.50;99.90;;;;;;7386551;19;20146;-79
2023/05/18 02:58:59;;;;;;;5.60;4.00;;;10.50;99.90;;;;;;7388043;19;20486;-78
2023/05/18 03:01:26;;;;;;;8.27;4.03;;;10.20;99.90;;;;;;7387576;19;20568;-78
2023/05/18 03:03:58;;;;;;;5.50;3.70;;;10.40;99.90;;;;;;7385814;19;20131;-78
2023/05/18 03:06:25;;;;;;;5.80;3.70;;;10.00;99.90;;;;;;7390393;19;20222;-78
2023/05/18 03:08:53;;;;;;;6.83;3.97;;;9.60;99.90;;;;;;7386095;19;20142;-78
2023/05/18 03:11:20;;;;;;;6.77;3.57;;;9.50;99.90;;;;;;7387909;19;20143;-77
2023/05/18 03:13:46;;;;;;;8.47;4.40;;;9.80;99.90;;;;;;7387434;19;20139;-79
2023/05/18 03:16:12;;;;;;;8.00;3.80;;;10.00;99.90;;;;;;7386656;19;20202;-78
2023/05/18 03:18:39;;;;;;;6.33;3.90;;;9.80;99.90;;;;;;7388581;19;20138;-79
2023/05/18 03:21:04;;;;;;;6.93;3.93;;;9.20;99.90;;;;;;7385656;19;20512;-77
2023/05/18 03:23:30;;;;;;;6.10;3.50;;;9.20;99.90;;;;;;7382938;19;20162;-77
2023/05/18 03:25:56;;;;;;;6.43;3.57;;;9.20;99.90;;;;;;7387627;19;20161;-79
2023/05/18 03:28:22;;;;;;;6.00;3.70;;;9.00;99.90;;;;;;7389339;19;20138;-77
2023/05/18 03:30:48;;;;;;;5.67;3.63;;;8.90;99.90;;;;;;7384589;19;20447;-77
2023/05/18 03:33:13;;;;;;;7.90;4.10;;;9.30;99.90;;;;;;7386856;19;20157;-78
2023/05/18 03:35:39;;;;;;;7.60;3.80;;;9.60;99.90;;;;;;7384913;19;20150;-78
2023/05/18 03:38:06;;;;;;;6.07;3.43;;;9.80;99.90;;;;;;7385785;19;20168;-77
2023/05/18 03:40:32;;;;;;;6.83;3.17;;;9.90;99.90;;;;;;7385408;19;20169;-78
2023/05/18 03:42:57;;;;;;;6.67;3.23;;;9.90;99.90;;;;;;7386783;19;20487;-78
2023/05/18 03:45:23;;;;;;;7.73;3.63;;;9.80;99.90;;;;;;7386547;19;20135;-78
2023/05/18 03:47:50;;;;;;;8.23;3.87;;;9.90;99.90;;;;;;7387621;19;20134;-78
2023/05/18 03:50:15;;;;;;;6.23;3.60;;;9.60;99.90;;;;;;7385756;19;20142;-77
2023/05/18 03:52:43;;;;;;;6.13;3.53;;;9.30;99.90;;;;;;7385811;19;20134;-78
2023/05/18 03:55:09;;;;;;;5.77;3.80;;;9.20;99.90;;;;;;7386544;19;20138;-78
2023/05/18 03:57:35;;;;;;;6.47;3.50;;;9.10;99.90;;;;;;7387191;19;20165;-77
2023/05/18 04:00:12;;;;;;;5.83;3.53;;;9.30;99.90;;;;;;7386240;19;20198;-78
2023/05/18 04:02:38;;;;;;;5.43;3.70;;;9.50;99.90;;;;;;7384336;19;20193;-77
2023/05/18 04:05:05;;;;;;;6.03;3.47;;;9.50;99.90;;;;;;7385742;19;20134;-79
2023/05/18 04:07:31;;;;;;;6.60;3.47;;;9.40;99.90;;;;;;7385728;19;20194;-78
2023/05/18 04:09:57;;;;;;;4.67;3.23;;;9.50;99.90;;;;;;7386008;19;20154;-78
2023/05/18 04:12:22;;;;;;;5.10;3.23;;;9.80;99.90;;;;;;7386233;19;20175;-78
2023/05/18 04:14:48;;;;;;;5.77;3.70;;;10.10;99.90;;;;;;7383157;19;20131;-78
2023/05/18 04:17:20;;;;;;;5.80;4.00;;;10.10;99.90;;;;;;7387991;19;20139;-78
2023/05/18 04:19:48;;;;;;;5.90;3.33;;;10.20;99.90;;;;;;7383055;19;20220;-78
2023/05/18 04:22:15;;;;;;;5.50;4.00;;;10.20;99.90;;;;;;7384612;19;20122;-78
2023/05/18 04:24:41;;;;;;;6.07;3.57;;;10.20;99.90;;;;;;7381735;19;20554;-78
2023/05/18 04:27:08;;;;;;;10.10;3.97;;;10.20;99.90;;;;;;7386137;19;20142;-79
2023/05/18 04:29:38;;;;;;;6.20;3.37;;;10.20;99.90;;;;;;7384221;19;20150;-78
2023/05/18 04:32:06;;;;;;;6.70;3.73;;;10.00;99.90;;;;;;7384520;19;20401;-77
2023/05/18 04:34:34;;;;;;;6.97;3.47;;;10.00;99.90;;;;;;7385260;19;20582;-78
2023/05/18 04:37:01;;;;;;;7.37;3.73;;;9.90;99.90;;;;;;7383521;19;20539;-77
2023/05/18 04:39:28;;;;;;;4.60;3.37;;;10.00;99.90;;;;;;7385298;19;20135;-79
2023/05/18 04:41:59;;;;;;;6.20;3.47;;;10.20;99.90;;;;;;7385215;19;20216;-78
2023/05/18 04:44:30;;;;;;;7.27;3.37;;;10.30;99.90;;;;;;7383199;19;20222;-78
2023/05/18 04:46:56;;;;;;;6.67;3.73;;;10.30;99.90;;;;;;7386161;19;20127;-78
2023/05/18 04:49:22;;;;;;;9.10;3.67;;;10.40;99.90;;;;;;7383564;19;20221;-77
2023/05/18 04:51:54;;;;;;;6.80;4.07;;;10.30;99.90;;;;;;7387542;19;20154;-78
2023/05/18 04:54:25;;;;;;;5.90;3.53;;;10.30;99.90;;;;;;7384408;19;20160;-77
2023/05/18 04:56:51;;;;;;;6.57;3.70;;;10.50;99.90;;;;;;7390244;19;20139;-78
2023/05/18 04:59:18;;;;;;;6.53;3.50;;;10.40;99.90;;;;;;7389543;19;20145;-77
2023/05/18 05:01:44;;;;;;;7.13;3.73;;;10.40;99.90;;;;;;7392024;19;20142;-78
2023/05/18 05:04:10;;;;;;;9.17;3.87;;;10.40;99.90;;;;;;7390879;19;20142;-78
2023/05/18 05:06:36;;;;;;;6.47;3.30;;;10.40;99.90;;;;;;7390909;19;20168;-76
2023/05/18 05:09:01;;;;;;;6.23;3.93;;;10.30;99.90;;;;;;7389768;19;20130;-78
2023/05/18 05:11:27;;;;;;;7.03;3.57;;;10.00;99.90;;;;;;7390659;19;20142;-78
2023/05/18 05:13:53;;;;;;;6.40;3.30;;;9.90;99.90;;;;;;7392412;19;20133;-78
2023/05/18 05:16:19;;;;;;;7.30;3.37;;;10.00;99.90;;;;;;7389792;19;20172;-78
2023/05/18 05:18:44;;;;;;;6.27;2.93;;;10.30;99.90;;;;;;7389669;19;20214;-78
2023/05/18 05:21:10;;;;;;;8.57;3.07;;;10.40;99.90;;;;;;7390291;19;20942;-77
2023/05/18 05:23:36;;;;;;;8.47;3.67;;;10.50;99.90;;;;;;7388330;19;20141;-78
2023/05/18 05:26:02;;;;;;;5.93;3.47;;;10.60;99.90;;;;;;7388850;19;20582;-77
2023/05/18 05:28:27;;;;;;;5.90;3.00;;;10.60;99.90;;;;;;7392096;19;20266;-77
2023/05/18 05:30:53;;;;;;;6.20;3.53;;;10.60;99.90;;;;;;7390363;19;20135;-78
2023/05/18 05:33:19;;;;;;;6.47;3.20;;;10.40;99.90;;;;;;7388971;19;20146;-78
2023/05/18 05:35:45;;;;;;;7.67;3.20;;;10.60;99.90;;;;;;7387572;19;20123;-78
2023/05/18 05:38:10;;;;;;;5.33;2.50;;;10.60;99.90;;;;;;7389574;19;20166;-78
2023/05/18 05:40:36;;;;;;;6.80;2.90;;;10.70;99.90;;;;;;7387454;19;20131;-77
2023/05/18 05:43:04;;;;;;;6.37;3.07;;;10.80;99.90;;;;;;7389975;19;20139;-76
2023/05/18 05:45:29;;;;;;;5.03;2.63;;;10.80;99.90;;;;;;7389988;19;20142;-77
2023/05/18 05:47:55;;;;;;;7.27;3.00;;;10.70;99.90;;;;;;7390192;19;20154;-78
2023/05/18 05:50:21;;;;;;;4.90;2.53;;;10.70;99.90;;;;;;7390304;19;20444;-76
2023/05/18 05:52:47;;;;;;;6.07;2.67;;;10.70;99.90;;;;;;7390747;19;20134;-76
2023/05/18 05:55:13;;;;;;;10.80;2.70;;;10.70;99.90;;;;;;7387747;19;20130;-77
2023/05/18 05:57:41;;;;;;;8.20;2.80;;;10.70;99.90;;;;;;7389982;19;20210;-77
2023/05/18 06:00:11;;;;;;;4.80;2.77;;;10.80;99.90;;;;;;7388323;19;20134;-78
2023/05/18 06:02:38;;;;;;;5.20;2.90;;;10.90;99.90;;;;;;7389587;19;20135;-77
2023/05/18 06:05:06;;;;;;;4.83;2.40;;;10.90;99.90;;;;;;7388880;19;20283;-77
2023/05/18 06:07:32;;;;;;;7.33;3.30;;;11.00;99.90;;;;;;7387724;19;20259;-76
2023/05/18 06:09:58;;;;;;;6.07;2.50;;;11.00;99.90;;;;;;7387051;19;20614;-77
2023/05/18 06:12:23;;;;;;;6.70;2.93;;;11.10;99.90;;;;;;7382715;19;20166;-77
2023/05/18 06:14:53;;;;;;;6.97;2.77;;;11.10;99.90;;;;;;7390826;19;20590;-77
2023/05/18 06:17:19;;;;;;;3.50;2.57;;;11.30;99.90;;;;;;7387405;19;20135;-78
2023/05/18 06:19:44;;;;;;;4.30;2.70;;;12.10;99.90;;;;;;7388323;19;20279;-78
2023/05/18 06:22:10;;;;;;;4.90;2.80;;;13.80;99.90;;;;;;7387249;19;20839;-78
2023/05/18 06:24:36;;;;;;;6.03;2.80;;;15.30;99.90;;;;;;7387485;19;20141;-77
2023/05/18 06:27:03;;;;;;;5.13;2.20;;;16.90;99.90;;;;;;7392946;19;20186;-76
2023/05/18 06:29:29;;;;;;;8.23;2.88;;;18.00;99.90;;;;;;7386483;19;20142;-77
2023/05/18 06:31:56;;;;;;;5.33;2.40;;;18.60;99.90;;;;;;7388860;19;20143;-77
2023/05/18 06:34:22;;;;;;;5.13;2.28;;;19.40;98.90;;;;;;7389908;19;20134;-76
2023/05/18 06:36:47;;;;;;;6.97;2.53;;;19.60;98.30;;;;;;7389068;19;20234;-77
2023/05/18 06:39:13;;;;;;;5.50;2.85;;;19.90;97.00;;;;;;7388297;19;20146;-77
2023/05/18 06:41:39;;;;;;;5.38;2.30;;;19.20;97.70;;;;;;7388764;19;20145;-79
2023/05/18 06:44:05;;;;;;;8.52;2.47;;;19.10;98.20;;;;;;7387332;19;20169;-78
2023/05/18 06:46:31;;;;;;;6.27;2.70;;;19.30;98.20;;;;;;7388133;19;20142;-78
2023/05/18 06:48:56;;;;;;;7.50;2.72;;;19.80;96.90;;;;;;7388259;19;20481;-78
2023/05/18 06:51:22;;;;;;;3.50;2.40;;;19.20;97.20;;;;;;7389097;19;20600;-78
2023/05/18 06:53:49;;;;;;;8.02;2.55;;;19.00;97.80;;;;;;7388443;19;20661;-77
2023/05/18 06:56:15;;;;;;;5.72;2.30;;;18.90;98.00;;;;;;7389714;19;20625;-79
2023/05/18 06:58:42;;;;;;;4.68;2.15;;;18.90;97.90;;;;;;7386315;19;20143;-77
2023/05/18 07:01:08;;;;;;;5.27;2.33;;;18.60;97.70;;;;;;7390178;19;20155;-78
2023/05/18 07:03:34;;;;;;;4.68;2.30;;;17.60;99.00;;;;;;7385540;19;20161;-78
2023/05/18 07:06:00;;;;;;;5.10;2.77;;;17.50;99.90;;;;;;7387253;19;20227;-78
2023/05/18 07:08:26;;;;;;;4.38;2.33;;;17.20;99.90;;;;;;7385956;19;20134;-79
2023/05/18 07:10:52;;;;;;;4.82;2.65;;;17.00;99.90;;;;;;7383986;19;20165;-78
2023/05/18 07:13:18;;;;;;;6.30;2.17;;;16.90;99.90;;;;;;7386399;19;20559;-78
2023/05/18 07:15:44;;;;;;;6.35;2.33;;;16.90;99.90;;;;;;7387017;19;20170;-79
2023/05/18 07:18:10;;;;;;;7.72;2.70;;;17.00;99.90;;;;;;7385623;19;20142;-80
2023/05/18 07:20:35;;;;;;;4.47;2.20;;;16.80;99.90;;;;;;7384578;19;20186;-80
2023/05/18 07:23:01;;;;;;;6.47;2.30;;;16.70;99.90;;;;;;7387691;19;20745;-78
2023/05/18 07:25:27;;;;;;;7.20;2.28;;;16.70;99.90;;;;;;7386127;19;20144;-79
2023/05/18 07:27:53;;;;;;;6.63;2.13;;;16.90;99.90;;;;;;7388284;19;20176;-79
2023/05/18 07:30:20;;;;;;;8.90;2.40;;;17.20;99.90;;;;;;7388561;19;20147;-79
2023/05/18 07:32:46;;;;;;;5.75;2.53;;;16.90;99.90;;;;;;7388670;19;20143;-78
2023/05/18 07:35:12;;;;;;;4.20;2.20;;;16.90;99.90;;;;;;7381527;19;20150;-77
2023/05/18 07:37:38;;;;;;;6.63;3.13;;;16.60;99.90;;;;;;7385925;19;20617;-77
2023/05/18 07:40:05;;;;;;;6.00;3.35;;;16.80;99.90;;;;;;7384405;19;20155;-77
2023/05/18 07:42:33;;;;;;;8.27;2.60;;;17.20;99.90;;;;;;7386424;19;20203;-79
2023/05/18 07:44:59;;;;;;;6.75;2.60;;;17.30;99.90;;;;;;7385904;19;20167;-76
2023/05/18 07:47:25;;;;;;;5.53;2.28;;;17.30;99.90;;;;;;7387425;19;20252;-76
2023/05/18 07:49:51;;;;;;;6.25;2.03;;;17.40;99.90;;;;;;7384927;19;20142;-75
2023/05/18 07:52:17;;;;;;;6.93;2.63;;;17.60;99.90;;;;;;7384420;19;20222;-73
2023/05/18 07:54:43;;;;;;;6.88;2.40;;;17.40;99.90;;;;;;7386130;19;20150;-77
2023/05/18 07:57:09;;;;;;;5.40;1.95;;;17.50;99.90;;;;;;7385535;19;20151;-77
2023/05/18 07:59:35;;;;;;;6.35;2.20;;;17.80;99.90;;;;;;7384792;19;20157;-77
2023/05/18 08:02:01;;;;;;;3.17;2.10;;;18.10;99.90;;;;;;7384985;19;20648;-75
2023/05/18 08:04:27;;;;;;;6.30;2.40;;;18.00;99.70;;;;;;7384003;19;20149;-76
2023/05/18 08:06:54;;;;;;;6.00;2.38;;;17.90;99.90;;;;;;7386480;19;20242;-78
2023/05/18 08:09:23;;;;;;;5.95;2.38;;;18.10;99.70;;;;;;7383318;19;20146;-77
2023/05/18 08:11:50;;;;;;;4.82;1.95;;;18.20;99.90;;;;;;7385599;19;20150;-76
2023/05/18 08:14:28;;;;;;;4.53;2.03;;;18.50;99.30;;;;;;7385242;19;20627;-75
2023/05/18 08:16:54;;;;;;;6.32;2.60;;;18.60;98.90;;;;;;7386196;19;20142;-75
2023/05/18 08:19:20;;;;;;;5.13;2.13;;;18.80;98.60;;;;;;7383523;19;20196;-75
2023/05/18 08:21:46;;;;;;;9.48;2.15;;;18.80;98.20;;;;;;7386789;19;20177;-75
2023/05/18 08:24:11;;;;;;;7.95;1.95;;;18.80;97.90;;;;;;7381859;19;20142;-74
2023/05/18 08:26:37;;;;;;;4.78;1.85;;;18.70;98.10;;;;;;7385124;19;20479;-74
2023/05/18 08:29:08;;;;;;;6.90;3.20;;;18.70;97.90;;;;;;7384500;19;20157;-73
2023/05/18 08:31:38;;;;;;;5.93;3.17;;;18.30;98.00;;;;;;7388669;19;20498;-75
2023/05/18 08:34:05;;;;;;;4.90;2.63;;;18.00;98.70;;;;;;7389644;19;20145;-76
2023/05/18 08:36:32;;;;;;;3.50;2.20;;;18.30;98.80;;;;;;7392474;19;20791;-76
2023/05/18 08:38:58;;;;;;;6.63;2.10;;;18.20;98.20;;;;;;7387759;19;20140;-74
2023/05/18 08:41:30;;;;;;;4.93;2.30;;;18.00;98.10;;;;;;7387325;19;20134;-76
2023/05/18 08:44:03;;;;;;;6.95;2.30;;;17.90;98.60;;;;;;7392156;19;20241;-75
2023/05/18 08:46:41;;;;;;;4.70;2.13;;;18.10;98.20;;;;;;7390474;19;20146;-74
2023/05/18 08:49:09;;;;;;;3.92;2.00;;;18.10;97.90;;;;;;7391500;19;20142;-74
2023/05/18 08:51:36;;;;;;;5.25;2.05;;;18.30;98.10;;;;;;7392474;19;20135;-73
2023/05/18 08:54:04;;;;;;;5.80;2.22;;;18.50;97.40;;;;;;7391068;19;20519;-74
2023/05/18 08:56:34;;;;;;;5.57;2.10;;;18.40;97.30;;;;;;7390652;19;20204;-74
2023/05/18 08:59:06;;;;;;;9.18;2.08;;;18.40;97.60;;;;;;7391212;19;20748;-73
2023/05/18 09:01:33;;;;;;;6.90;2.33;;;18.30;97.10;;;;;;7390166;19;20147;-74
2023/05/18 09:03:59;;;;;;;7.03;2.05;;;18.20;97.20;;;;;;7390264;19;21458;-74
2023/05/18 09:06:27;;;;;;;7.13;2.08;;;18.20;97.20;;;;;;7388519;19;20147;-75
2023/05/18 09:08:54;;;;;;;4.68;2.28;;;18.00;98.00;;;;;;7389068;19;20150;-74
2023/05/18 09:11:21;;;;;;;4.15;2.20;;;18.00;97.30;;;;;;7389928;19;20584;-74
2023/05/18 09:13:49;;;;;;;4.18;2.22;;;17.90;97.40;;;;;;7391200;19;20594;-74
2023/05/18 09:16:16;;;;;;;9.65;2.47;;;17.90;97.50;;;;;;7387913;19;20150;-75
2023/05/18 09:18:42;;;;;;;6.88;2.33;;;17.60;97.50;;;;;;7390441;19;20357;-77
2023/05/18 09:21:08;;;;;;;5.57;1.95;;;17.50;96.90;;;;;;7389242;19;20162;-73
2023/05/18 09:23:34;;;;;;;7.13;2.03;;;17.50;97.20;;;;;;7389309;19;20472;-74
2023/05/18 09:26:00;;;;;;;5.35;2.42;;;17.70;97.00;;;;;;7387503;19;20412;-75
2023/05/18 09:28:32;;;;;;;8.25;2.17;;;17.80;96.90;;;;;;7380167;19;20158;-73
2023/05/18 09:30:58;;;;;;;3.90;2.33;;;17.80;96.80;;;;;;7386961;19;20203;-75
2023/05/18 09:33:26;;;;;;;4.00;2.03;;;17.90;97.70;;;;;;7389415;19;20192;-73
2023/05/18 09:35:51;;;;;;;4.75;2.22;;;18.10;96.80;;;;;;7385251;19;20161;-76
2023/05/18 09:38:22;;;;;;;5.68;2.55;;;18.30;96.60;;;;;;7388744;19;20135;-78
2023/05/18 09:40:49;;;;;;;4.88;1.85;;;18.30;96.20;;;;;;7387938;19;20609;-71
2023/05/18 09:43:19;;;;;;;6.68;2.45;;;18.10;96.10;;;;;;7387614;19;20146;-74
2023/05/18 09:45:47;;;;;;;6.20;1.90;;;17.90;96.80;;;;;;7392053;19;20198;-73
2023/05/18 09:48:15;;;;;;;5.25;2.13;;;17.80;96.40;;;;;;7390242;19;20898;-72
2023/05/18 09:50:43;;;;;;;6.13;2.20;;;18.00;96.60;;;;;;7384122;19;20145;-72
2023/05/18 09:53:09;;;;;;;5.93;2.08;;;18.20;96.40;;;;;;7390236;19;20620;-73
2023/05/18 09:56:00;;;;;;;4.60;2.10;;;18.10;95.60;;;;;;7386245;19;20151;-74
2023/05/18 09:58:31;;;;;;;4.65;2.33;;;18.10;95.90;;;;;;7389356;19;20134;-74
2023/05/18 10:01:00;;;;;;;7.57;2.28;;;18.00;95.40;;;;;;7385539;19;20127;-73
2023/05/18 10:03:37;;;;;;;4.88;2.20;;;18.10;95.30;;;;;;7387669;19;20594;-75
2023/05/18 10:06:13;;;;;;;5.78;2.42;;;18.10;95.20;;;;;;7389350;19;20166;-74
2023/05/18 10:08:39;;;;;;;5.10;2.28;;;18.50;95.10;;;;;;7388336;19;20153;-74
2023/05/18 10:11:06;;;;;;;8.40;2.90;;;18.60;95.00;;;;;;7388096;19;20693;-74
2023/05/18 10:13:33;;;;;;;3.35;1.92;;;18.50;94.60;;;;;;7385569;19;20135;-78
2023/05/18 10:16:06;;;;;;;7.22;2.03;;;18.40;95.00;;;;;;7382862;19;21349;-80
2023/05/18 10:18:34;;;;;;;5.38;2.40;;;18.30;94.70;;;;;;7384643;19;20939;-77
2023/05/18 10:21:02;;;;;;;4.68;2.20;;;18.30;94.20;;;;;;7387382;19;20468;-79
2023/05/18 10:23:40;;;;;;;6.93;2.17;;;18.30;94.30;;;;;;7384772;19;20138;-76
2023/05/18 10:26:08;;;;;;;4.20;1.85;;;18.30;94.80;;;;;;7386540;19;20162;-81
2023/05/18 10:28:41;;;;;;;10.68;2.15;;;18.30;95.10;;;;;;7388698;19;20621;-80
2023/05/18 10:31:07;;;;;;;4.55;2.08;;;18.50;94.70;;;;;;7388237;19;20142;-80
2023/05/18 10:33:36;;;;;;;4.13;1.90;;;18.50;94.10;;;;;;7391346;19;20135;-79
2023/05/18 10:36:05;;;;;;;5.25;2.53;;;18.50;94.30;;;;;;7387676;19;20616;-80
2023/05/18 10:38:32;;;;;;;4.30;2.00;;;18.50;94.20;;;;;;7388685;19;20602;-79
2023/05/18 10:40:59;;;;;;;6.28;2.42;;;18.40;94.30;;;;;;7386539;19;20168;-77
2023/05/18 10:43:26;;;;;;;4.15;2.65;;;18.20;93.90;;;;;;7386069;19;20142;-76
2023/05/18 10:45:54;;;;;;;4.22;2.13;;;18.00;94.20;;;;;;7390741;19;20138;-77
2023/05/18 10:48:21;;;;;;;5.70;3.00;;;18.00;94.50;;;;;;7386634;19;20147;-80
2023/05/18 10:50:49;;;;;;;6.28;2.45;;;17.90;94.40;;;;;;7387031;19;20161;-79
2023/05/18 10:53:20;;;;;;;4.70;1.80;;;18.10;95.40;;;;;;7387111;19;20701;-79
2023/05/18 10:55:50;;;;;;;5.90;2.33;;;18.40;94.50;;;;;;7388108;19;20186;-77
2023/05/18 10:58:18;;;;;;;5.40;2.17;;;18.50;94.00;;;;;;7389386;19;20276;-75
2023/05/18 11:00:50;;;;;;;5.88;2.00;;;18.60;93.60;;;;;;7387436;19;20961;-76
2023/05/18 11:03:18;;;;;;;4.00;2.10;;;18.40;93.50;;;;;;7386838;19;20146;-76
2023/05/18 11:05:50;;;;;;;4.97;2.20;;;18.30;93.80;;;;;;7389978;19;20127;-76
2023/05/18 11:08:25;;;;;;;6.00;2.17;;;18.30;94.00;;;;;;7386402;19;20150;-71
2023/05/18 11:11:02;;;;;;;3.88;1.98;;;18.40;92.80;;;;;;7387446;19;20134;-73
2023/05/18 11:13:30;;;;;;;3.60;2.03;;;18.40;93.70;;;;;;7387645;19;20142;-73
2023/05/18 11:15:57;;;;;;;4.57;2.17;;;18.50;93.10;;;;;;7387975;19;20143;-73
2023/05/18 11:18:45;;;;;;;3.47;2.22;;;18.60;93.30;;;;;;7387943;19;20154;-74
2023/05/18 11:21:33;;;;;;;5.43;2.05;;;18.60;93.70;;;;;;7386087;19;20624;-75
2023/05/18 11:24:31;;;;;;;4.32;1.58;;;18.80;92.80;;;;;;7386160;19;20165;-76
2023/05/18 11:27:12;;;;;;;4.45;2.08;;;18.90;93.00;;;;;;7389395;19;20139;-74
2023/05/18 11:29:49;;;;;;;5.32;2.10;;;18.90;92.60;;;;;;7385681;19;20464;-75
2023/05/18 11:32:48;;;;;;;2.90;1.77;;;18.90;92.70;;;;;;7385253;19;20134;-72
2023/05/18 11:35:22;;;;;;;4.28;2.17;;;18.90;92.90;;;;;;7385354;19;20142;-73
2023/05/18 11:37:48;;;;;;;6.13;2.10;;;19.00;92.40;;;;;;7383973;19;20253;-73
2023/05/18 11:40:44;;;;;;;4.35;1.90;;;19.10;92.30;;;;;;7385212;19;20131;-75
2023/05/18 11:43:24;;;;;;;7.93;2.08;;;19.10;92.80;;;;;;7387231;19;20221;-75
2023/05/18 11:45:57;;;;;;;5.38;2.80;;;19.20;92.30;;;;;;7386695;19;20134;-74
2023/05/18 11:48:25;;;;;;;5.20;1.90;;;19.30;92.30;;;;;;7385996;19;20126;-74
2023/05/18 11:50:54;;;;;;;5.60;2.05;;;19.30;91.80;;;;;;7385695;19;20153;-74
2023/05/18 11:53:25;;;;;;;3.92;1.77;;;19.30;92.20;;;;;;7386415;19;20613;-72
2023/05/18 11:55:55;;;;;;;2.80;1.85;;;19.50;91.70;;;;;;7386779;19;20253;-74
2023/05/18 11:58:24;;;;;;;3.97;1.63;;;19.60;91.50;;;;;;7386621;19;20864;-72
2023/05/18 12:00:51;;;;;;;4.25;2.00;;;19.70;91.50;;;;;;7386369;19;20147;-73
2023/05/18 12:03:22;;;;;;;5.30;1.92;;;19.60;91.00;;;;;;7386158;19;20210;-74
2023/05/18 12:05:48;;;;;;;5.90;1.92;;;19.50;91.20;;;;;;7386502;19;20142;-74
2023/05/18 12:08:18;;;;;;;4.65;1.80;;;19.50;90.90;;;;;;7385420;19;20618;-75
2023/05/18 12:10:48;;;;;;;3.80;1.55;;;19.40;91.20;;;;;;7387505;19;20479;-75
2023/05/18 12:13:16;;;;;;;4.47;1.92;;;19.30;91.00;;;;;;7383790;19;20138;-74
2023/05/18 12:15:43;;;;;;;4.93;2.10;;;19.20;91.10;;;;;;7385621;19;20146;-73
2023/05/18 12:18:10;;;;;;;3.88;1.90;;;19.30;91.00;;;;;;7385658;19;20122;-73
2023/05/18 12:20:39;;;;;;;4.93;2.13;;;19.30;91.50;;;;;;7384679;19;20186;-74
2023/05/18 12:23:05;;;;;;;4.30;1.70;;;19.50;90.80;;;;;;7386826;19;20134;-74
2023/05/18 12:25:30;;;;;;;5.07;1.83;;;19.50;91.30;;;;;;7388725;19;20222;-74
2023/05/18 12:27:56;;;;;;;3.17;1.90;;;19.40;91.40;;;;;;7385685;19;20131;-75
2023/05/18 12:30:25;;;;;;;4.55;1.90;;;19.30;92.00;;;;;;7384135;19;20161;-74
2023/05/18 12:32:53;;;;;;;4.40;2.10;;;19.40;91.40;;;;;;7385211;19;20150;-73
2023/05/18 12:35:26;;;;;;;4.47;2.13;;;19.40;91.40;;;;;;7385786;19;20154;-74
2023/05/18 12:37:54;;;;;;;4.72;1.70;;;19.40;91.50;;;;;;7383305;19;20130;-73
2023/05/18 12:40:21;;;;;;;4.85;1.70;;;19.40;91.50;;;;;;7381463;19;20153;-71
2023/05/18 12:42:58;;;;;;;4.90;1.92;;;19.30;91.30;;;;;;7379907;19;20157;-73
2023/05/18 12:45:30;;;;;;;6.70;1.80;;;19.20;91.50;;;;;;7386354;19;20157;-73
2023/05/18 12:48:06;;;;;;;4.55;1.67;;;19.30;92.00;;;;;;7383875;19;20555;-72
2023/05/18 12:50:32;;;;;;;5.72;1.52;;;19.40;92.50;;;;;;7381183;19;20202;-74
2023/05/18 12:52:58;;;;;;;4.88;1.95;;;19.60;91.10;;;;;;7382864;19;20169;-73